createdAt,value
2024-02-19T00:01:45.770Z,23.88
2024-02-19T00:04:12.562Z,17.13
2024-02-19T00:06:39.846Z,15.05
2024-02-19T00:09:06.451Z,20.33
2024-02-19T00:11:33.118Z,15.65
2024-02-19T00:13:59.800Z,16.80
2024-02-19T00:16:26.435Z,13.48
2024-02-19T00:18:53.232Z,16.00
2024-02-19T00:21:19.964Z,22.10
2024-02-19T00:23:46.692Z,14.45
2024-02-19T00:26:14.374Z,16.05
2024-02-19T00:28:41.121Z,12.00
2024-02-19T00:31:11.812Z,14.45
2024-02-19T00:33:39.497Z,11.40
2024-02-19T00:36:06.282Z,9.27
2024-02-19T00:38:32.977Z,12.00
2024-02-19T00:40:59.523Z,11.27
2024-02-19T00:43:26.206Z,14.27
2024-02-19T00:45:52.898Z,10.35
2024-02-19T00:48:19.637Z,16.88
2024-02-19T00:50:46.145Z,11.75
2024-02-19T00:53:12.654Z,10.68
2024-02-19T00:58:05.873Z,9.45
2024-02-19T01:00:33.006Z,7.65
2024-02-19T01:02:59.566Z,11.80
2024-02-19T01:05:26.926Z,8.23
2024-02-19T01:07:53.584Z,10.25
2024-02-19T01:10:22.847Z,9.45
2024-02-19T01:12:49.553Z,10.13
2024-02-19T01:15:17.139Z,5.10
2024-02-19T01:17:45.282Z,7.20
2024-02-19T01:20:12.411Z,3.85
2024-02-19T01:22:40.001Z,3.60
2024-02-19T01:25:07.067Z,7.40
2024-02-19T01:27:33.614Z,4.00
2024-02-19T01:30:01.341Z,3.70
2024-02-19T01:32:28.116Z,5.80
2024-02-19T01:34:54.766Z,3.13
2024-02-19T01:37:21.891Z,2.78
2024-02-19T01:39:48.775Z,3.15
2024-02-19T01:42:15.261Z,3.53
2024-02-19T23:17:44.868Z,9.07
2024-02-19T23:20:11.783Z,20.60
2024-02-19T23:22:40.043Z,11.82
2024-02-19T23:25:07.643Z,17.08
2024-02-19T23:27:34.647Z,21.77
2024-02-19T23:30:02.699Z,20.73
2024-02-19T23:32:29.753Z,15.50
2024-02-19T23:34:57.239Z,29.70
2024-02-19T23:37:23.878Z,14.50
2024-02-19T23:39:50.539Z,22.33
2024-02-19T23:42:17.182Z,16.13
2024-02-19T23:44:44.589Z,15.65
2024-02-19T23:47:11.196Z,22.50
2024-02-19T23:49:38.687Z,17.27
2024-02-19T23:52:05.999Z,22.88
2024-02-19T23:54:32.703Z,12.52
2024-02-19T23:56:59.296Z,16.60
2024-02-19T23:59:26.197Z,20.45
